Cynthiana, KY

8:28 PM EDT on August 30, 2014 (GMT -0400)
Scott County EMA/OHS | Change Station
CLOSE
Current Station
Personal Weather Station
Location: Georgetown, KY
Elevation: 917 ft
Nearby Weather Stations

Elev 917 ft 38.28 °N, 84.57 °W | Updated 3 seconds ago

Overcast
Overcast
73.0 °F
Feels Like 73.0 °F
N
3.0
Wind Variable Wind from West
Gusts 3.0 mph

Today
High -- | Low -- °F
--% Chance of Precip.
Yesterday
High -- | Low -- °F
Precip. -- in
7:04 AM 8:10 PM
Waxing Crescent, 26% visible
Pressure 30.07 in
Visibility 10.0 miles
Clouds Scattered Clouds 7000 ft
Scattered Clouds 9000 ft
Mostly Cloudy 11000 ft
Dew Point 72 °F
Humidity 98%
Rainfall 0.64 in
Snow Depth Not available.
UV 0 out of 12
Pollen 11.00 out of 12
Air Quality Not available.
Flu Activity Not available.
METAR KIOB 310015Z AUTO 00000KT 10SM SCT070 SCT090 BKN110 26/21 A3007 RMK AO2

More Conditions Fewer Conditions

Pressure 30.07 in
Visibility 10.0 miles
Clouds Scattered Clouds 7000 ft
Scattered Clouds 9000 ft
Mostly Cloudy 11000 ft
Dew Point 72 °F
Humidity 98%
Rainfall 0.64 in
Snow Depth Not available.
UV 0 out of 12
Pollen 11.00 out of 12
Air Quality Not available.
Flu Activity Not available.
METAR KIOB 310015Z AUTO 00000KT 10SM SCT070 SCT090 BKN110 26/21 A3007 RMK AO2

More Conditions Fewer Conditions

10-Day Weather Forecast

Almanac

Astronomy

Aug. 30, 2014 Rise Set
Actual Time 7:04 AM EDT 8:10 PM EDT
Civil Twilight 6:37 AM EDT 8:37 PM EDT
Nautical Twilight 6:05 AM EDT 9:09 PM EDT
Astronomical Twilight 5:31 AM EDT 9:43 PM EDT
Moon 11:47 AM EDT (8/30) 10:48 PM EDT (8/30)
Length of Visible Light 13h 59m
Length of Day
13h 05m
Tomorrow will be 2m 23s shorter.
Waxing Crescent, 26% of the Moon is Illuminated
Today
Waxing Crescent
Sep 2
First Quarter
Sep 8
Full
Sep 15
Last Quarter
Sep 24
New

Today's Extremes

State Highs State Lows

Community

WunderPhotos

Upload Photos

1,748,704 photos uploaded!

Nearby

Snow Depth

Station Depth Elevation
No new snow has been reported.

Earthquake Activity

City Distance Mag. Time & Date
No recent earthquake activity has been reported nearby.
Minimum magnitude displayed is 2.5.

Coastal Water Temperatures

Place Temperature
No Stations Reporting

Nearby Weather Stations